Airfield :
LOGIN :

Register | Disclaimer

   EN    FR    IT 

 










Legend :    VFR   Marginal VFR   IFR   Intensive IFR   Very Intensive IFR
Visi :
Ceiling :
>= 8 km
>= 3000ft
5 to 8 km
1000 to 3000 ft
1500m to 5 km
500 to 1000 ft
800 to 1500m
200 to 500 ft
< 800m
< 200 ft
Symbols :   Thunderstorms  Fog  Heavy snow  Heavy precipitations  Wind > 20 kt
SIGMETs :     Misc.  Thunderstorms  Icing  Turbulence  Mountain Waves  Volcanic Ashes







- Airport Elevation : 659 ft
- IATA code : LYN
- Download approach charts


LFLY - Lyon Bron

CURRENT METAR :
  • 170200Z AUTO 21002KT 3400 RA BR BKN035/// OVC043/// ///TCU 05/04 Q1017 TEMPO 0800 BCFG OVC003

EXPIRED METARs :
  • 170130Z AUTO 00000KT 3800 BR FEW033/// BKN041/// OVC048/// ///TCU 05/04 Q1017 TEMPO 0800 BCFG OVC003
  • 170100Z AUTO 00000KT 4100 BR FEW048/// BKN064/// OVC076/// ///TCU 05/04 Q1016 TEMPO 0800 BCFG OVC003
  • 170030Z AUTO 03002KT 4500 BR SCT046 BKN078 BKN100 05/04 Q1016 TEMPO 0800 BCFG OVC003
  • 170000Z AUTO 20002KT 5000 BR SCT040/// BKN054/// BKN080/// ///TCU 05/04 Q1016 TEMPO 0800 BCFG OVC003
  • 162330Z AUTO VRB03KT 5000 BR BKN050 BKN066 OVC080 05/04 Q1016 TEMPO 0800 BCFG OVC003

TAF TAF LFLY
Valid from the 17 at 00:00 until the 18 at 00:00 UTC


162300Z 1700/1724 VRB05KT 8000 BKN025
PROB40
TEMPO 1700/1709 2000 -RADZ BR BKN008 BKN013
PROB30
TEMPO 1700/1706 0800 BCFG OVC003
ATIS : +33 4 72 15 87 96
No reported NOTAMs for that airfield.
2 SIGMETs reported for the Marseille FIR (LFMM) :
 
Severe turbulence
LFMM SIGMET 4 VALID 170000/170400 LFPW
LFMM MARSEILLE FIR/UIR SEV TURB FCST S OF N4230 AND E OF E00830 SFC/FL100 STNR NC=
Severe turbulence
LFMM SIGMET 3 VALID 170000/170400 LFPW
LFMM MARSEILLE FIR/UIR SEV TURB FCST WI N4030 E00430 - N4200 E00430 - N4215 E00230 - N4330 E00245 - N4430 E00415 - N4130 E00615 - N4030 E00430 SFC/FL060 STNR NC=



MET'MAP, your aeronautical weather chart ! - Copyright ORBIFLY December 2007 - Disclaimer

ORBIFLY MET'MAP TEAM :

Programming & Development : Alexandra Zaïnal
Concept & Development : Baudouin d'Aumeries
Co-Development & Prog : Marc-Olivier Méhu
Technical & hardware support : Manuel Goepfert

Contact : metmap@orbifly.com




SOURCES & CREDITS :

   NOAA